Time;durP1;ratioP1;P1;durP2;ratioP2;P2;SDS_P1;SDS_P2;PMS_P1;PMS_P2;Temp;Humidity;BMP_temperature;BMP_pressure;BME280_temperature;BME280_humidity;BME280_pressure;Samples;Min_cycle;Max_cycle;Signal;HPM_P1;HPM_P2
2022/11/22 00:04:32;;;;;;;10.8;17.8;;;;;;;1.3;87.8;97680;;;;
2022/11/22 00:14:32;;;;;;;10.8;17.8;;;;;;;1;87.8;97690;;;;
2022/11/22 00:25:32;;;;;;;9.8;16.7;;;;;;;0.7;87.5;97700;;;;
2022/11/22 00:36:32;;;;;;;9.8;16.7;;;;;;;0.4;87.4;97700;;;;
2022/11/22 00:46:32;;;;;;;8.8;14.2;;;;;;;0.2;87.7;97700;;;;
2022/11/22 00:57:32;;;;;;;8.8;14.2;;;;;;;0.1;88.2;97710;;;;
2022/11/22 01:07:32;;;;;;;8.8;14.2;;;;;;;-0.1;88.5;97720;;;;
2022/11/22 01:17:32;;;;;;;9.5;13.9;;;;;;;-0.2;88.5;97730;;;;
2022/11/22 01:27:32;;;;;;;9.5;13.9;;;;;;;-0.4;88.4;97740;;;;
2022/11/22 01:38:32;;;;;;;9.5;13.9;;;;;;;-0.4;89.1;97740;;;;
2022/11/22 01:48:32;;;;;;;13.4;22.6;;;;;;;-0.5;89.4;97720;;;;
2022/11/22 01:58:32;;;;;;;13.4;22.6;;;;;;;-0.6;89.5;97720;;;;
2022/11/22 02:09:32;;;;;;;13.4;22.6;;;;;;;-0.6;89.8;97710;;;;
2022/11/22 02:19:32;;;;;;;9.2;18;;;;;;;-0.4;90.7;97700;;;;
2022/11/22 02:29:32;;;;;;;9.2;18;;;;;;;-0.5;90.7;97690;;;;
2022/11/22 02:40:32;;;;;;;9.2;18;;;;;;;-0.6;90.6;97680;;;;
2022/11/22 02:50:32;;;;;;;7.3;14.5;;;;;;;-0.8;90.7;97680;;;;
2022/11/22 03:01:32;;;;;;;7.3;14.5;;;;;;;-1;90.1;97670;;;;
2022/11/22 03:12:32;;;;;;;7.3;14.5;;;;;;;-1.1;90.1;97670;;;;
2022/11/22 03:23:32;;;;;;;10;17.2;;;;;;;-1.3;89.9;97670;;;;
2022/11/22 03:33:32;;;;;;;10;17.2;;;;;;;-1.5;89.8;97660;;;;
2022/11/22 03:44:32;;;;;;;11.5;17.8;;;;;;;-1.6;89.7;97660;;;;
2022/11/22 03:54:32;;;;;;;11.5;17.8;;;;;;;-1.7;89.7;97660;;;;
2022/11/22 04:04:32;;;;;;;11.5;17.8;;;;;;;-1.8;89.7;97660;;;;
2022/11/22 04:15:36;;;;;;;10.1;16.2;;;;;;;-1.9;89.6;97650;;;;
2022/11/22 04:25:32;;;;;;;10.1;16.2;;;;;;;-1.9;89.6;97650;;;;
2022/11/22 04:36:32;;;;;;;10.1;16.2;;;;;;;-2;89.6;97650;;;;
2022/11/22 04:46:32;;;;;;;8.6;12.4;;;;;;;-2.1;89.5;97650;;;;
2022/11/22 04:57:32;;;;;;;8.6;12.4;;;;;;;-2.1;89.5;97650;;;;
2022/11/22 05:08:32;;;;;;;8.6;12.4;;;;;;;-2.2;89.6;97650;;;;
2022/11/22 05:18:32;;;;;;;7.6;12.2;;;;;;;-2.3;89.8;97650;;;;
2022/11/22 05:29:32;;;;;;;7.6;12.2;;;;;;;-2.4;89.9;97660;;;;
2022/11/22 05:39:32;;;;;;;7.6;12.2;;;;;;;-2.5;89.8;97650;;;;
2022/11/22 05:49:32;;;;;;;10;17.4;;;;;;;-2.6;89.6;97650;;;;
2022/11/22 06:00:32;;;;;;;10;17.4;;;;;;;-2.6;89.6;97660;;;;
2022/11/22 06:10:33;;;;;;;10;17.4;;;;;;;-2.7;89.5;97660;;;;
2022/11/22 06:20:32;;;;;;;12.7;20;;;;;;;-2.7;89.5;97670;;;;
2022/11/22 06:31:32;;;;;;;12.7;20;;;;;;;-2.6;89.5;97680;;;;
2022/11/22 06:41:32;;;;;;;12.7;20;;;;;;;-2.4;89.8;97690;;;;
2022/11/22 06:52:32;;;;;;;13.1;21.1;;;;;;;-2.3;89.9;97690;;;;
2022/11/22 07:03:32;;;;;;;13.1;21.1;;;;;;;-2.2;90;97690;;;;
2022/11/22 07:13:32;;;;;;;13.1;21.1;;;;;;;-1.9;90.2;97690;;;;
2022/11/22 07:23:32;;;;;;;11.3;18.6;;;;;;;-1.6;90.4;97710;;;;
2022/11/22 07:33:32;;;;;;;11.3;18.6;;;;;;;-1.4;90.5;97710;;;;
2022/11/22 07:43:32;;;;;;;12.8;22.4;;;;;;;-1.1;90.8;97700;;;;
2022/11/22 07:54:32;;;;;;;12.8;22.4;;;;;;;-0.8;91;97710;;;;
2022/11/22 08:04:32;;;;;;;12.8;22.4;;;;;;;-0.4;91.1;97710;;;;
2022/11/22 08:15:32;;;;;;;12.6;20;;;;;;;0;91.3;97710;;;;
2022/11/22 08:26:32;;;;;;;12.6;20;;;;;;;0.4;91.5;97700;;;;
2022/11/22 08:36:32;;;;;;;12.6;20;;;;;;;0.8;91.6;97730;;;;
2022/11/22 08:46:32;;;;;;;16.6;28.8;;;;;;;1.1;91.6;97740;;;;
2022/11/22 08:57:32;;;;;;;16.6;28.8;;;;;;;1.4;91.1;97740;;;;
2022/11/22 09:07:32;;;;;;;16.6;28.8;;;;;;;1.7;90.8;97720;;;;
2022/11/22 09:18:32;;;;;;;23.1;30.5;;;;;;;2;90.7;97730;;;;
2022/11/22 09:29:32;;;;;;;23.1;30.5;;;;;;;2.4;90.4;97720;;;;
2022/11/22 09:39:32;;;;;;;23.1;30.5;;;;;;;2.8;89.8;97710;;;;
2022/11/22 09:49:32;;;;;;;23.2;37.2;;;;;;;3.1;89;97700;;;;
2022/11/22 09:59:32;;;;;;;23.2;37.2;;;;;;;3.4;87.3;97700;;;;
2022/11/22 10:10:32;;;;;;;23.2;37.2;;;;;;;3.4;86.3;97690;;;;
2022/11/22 10:21:32;;;;;;;22.9;29.9;;;;;;;3.9;86.1;97680;;;;
2022/11/22 10:32:32;;;;;;;22.9;29.9;;;;;;;4.4;84.8;97670;;;;
2022/11/22 10:43:32;;;;;;;27;32.4;;;;;;;5;83.6;97670;;;;
2022/11/22 10:53:32;;;;;;;27;32.4;;;;;;;5.4;82.8;97660;;;;
2022/11/22 11:03:32;;;;;;;27;32.4;;;;;;;5.9;82.1;97640;;;;
2022/11/22 11:13:32;;;;;;;28.2;34.6;;;;;;;6.3;81.2;97630;;;;
2022/11/22 11:24:32;;;;;;;28.2;34.6;;;;;;;6.4;80.7;97630;;;;
2022/11/22 11:34:32;;;;;;;28.2;34.6;;;;;;;6.8;80.5;97630;;;;
2022/11/22 11:45:32;;;;;;;28.1;33.3;;;;;;;7;79.3;97630;;;;
2022/11/22 11:55:32;;;;;;;28.1;33.3;;;;;;;7.2;78.6;97610;;;;
2022/11/22 12:06:32;;;;;;;28.1;33.3;;;;;;;7.5;77.5;97620;;;;
2022/11/22 12:17:32;;;;;;;23.5;26.5;;;;;;;7.5;76.5;97620;;;;
2022/11/22 12:28:32;;;;;;;23.5;26.5;;;;;;;7.5;76.2;97600;;;;
2022/11/22 12:38:32;;;;;;;23.5;26.5;;;;;;;7.5;76.2;97590;;;;
2022/11/22 12:49:32;;;;;;;18.8;23.5;;;;;;;7.7;75.3;97580;;;;
2022/11/22 13:00:32;;;;;;;18.8;23.5;;;;;;;7.7;74.3;97570;;;;
2022/11/22 13:11:32;;;;;;;18.8;23.5;;;;;;;7.7;72.5;97580;;;;
2022/11/22 13:22:32;;;;;;;14.3;17.2;;;;;;;7.4;72.9;97580;;;;
2022/11/22 13:33:32;;;;;;;14.3;17.2;;;;;;;7;73.9;97580;;;;
2022/11/22 13:44:32;;;;;;;17.4;23.6;;;;;;;6.6;75;97580;;;;
2022/11/22 13:55:32;;;;;;;17.4;23.6;;;;;;;6.2;76.3;97570;;;;
2022/11/22 14:06:32;;;;;;;17.4;23.6;;;;;;;5.9;77.3;97570;;;;
2022/11/22 14:16:32;;;;;;;16.3;20.6;;;;;;;5.6;78.8;97560;;;;
2022/11/22 14:26:32;;;;;;;16.3;20.6;;;;;;;5.5;79.2;97570;;;;
2022/11/22 14:37:32;;;;;;;16.3;20.6;;;;;;;5.5;79.2;97590;;;;
2022/11/22 14:48:32;;;;;;;12.7;19;;;;;;;5.4;79.7;97590;;;;
2022/11/22 14:59:32;;;;;;;12.7;19;;;;;;;5.3;80.5;97590;;;;
2022/11/22 15:09:32;;;;;;;12.7;19;;;;;;;5.2;81;97610;;;;
2022/11/22 15:19:33;;;;;;;16.9;24.6;;;;;;;5.1;81.2;97600;;;;
2022/11/22 15:29:32;;;;;;;16.9;24.6;;;;;;;5;82;97600;;;;
2022/11/22 15:40:33;;;;;;;16.9;24.6;;;;;;;4.9;82.5;97610;;;;
2022/11/22 15:50:32;;;;;;;18.8;23.7;;;;;;;4.9;82.9;97630;;;;
2022/11/22 16:00:32;;;;;;;18.8;23.7;;;;;;;4.8;83.1;97630;;;;
2022/11/22 16:10:35;;;;;;;18.8;23.7;;;;;;;4.6;83.8;97620;;;;
2022/11/22 16:21:32;;;;;;;30.5;40.4;;;;;;;4.5;84.1;97620;;;;
2022/11/22 16:31:32;;;;;;;30.5;40.4;;;;;;;4.5;84.4;97620;;;;
2022/11/22 16:42:32;;;;;;;19.3;24.4;;;;;;;4.4;84.6;97630;;;;
2022/11/22 16:53:32;;;;;;;19.3;24.4;;;;;;;4.1;85.2;97640;;;;
2022/11/22 17:03:32;;;;;;;19.3;24.4;;;;;;;4;85.7;97630;;;;
2022/11/22 17:14:32;;;;;;;66.7;101.6;;;;;;;3.9;85.6;97630;;;;
2022/11/22 17:25:32;;;;;;;66.7;101.6;;;;;;;3.6;85.8;97640;;;;
2022/11/22 17:35:33;;;;;;;66.7;101.6;;;;;;;3.4;85.5;97640;;;;
2022/11/22 17:45:33;;;;;;;22.1;32.1;;;;;;;3.2;85.6;97640;;;;
2022/11/22 17:55:32;;;;;;;22.1;32.1;;;;;;;2.8;86.7;97640;;;;
2022/11/22 18:05:32;;;;;;;22.1;32.1;;;;;;;2.7;86.6;97650;;;;
2022/11/22 18:15:32;;;;;;;17;25.1;;;;;;;2.3;86.8;97660;;;;
2022/11/22 18:25:32;;;;;;;17;25.1;;;;;;;2.1;87.8;97670;;;;
2022/11/22 18:35:32;;;;;;;17;25.1;;;;;;;2;88.1;97660;;;;
2022/11/22 18:46:32;;;;;;;16.5;26.8;;;;;;;1.8;88.6;97660;;;;
2022/11/22 18:57:32;;;;;;;16.5;26.8;;;;;;;1.7;89.3;97670;;;;
2022/11/22 19:07:32;;;;;;;16.5;26.8;;;;;;;1.6;89.5;97670;;;;
2022/11/22 19:18:33;;;;;;;16.9;29.7;;;;;;;1.7;89.7;97660;;;;
2022/11/22 19:29:32;;;;;;;16.9;29.7;;;;;;;1.7;89.5;97670;;;;
2022/11/22 19:39:32;;;;;;;16.9;29.7;;;;;;;1.6;89.3;97680;;;;
2022/11/22 19:49:32;;;;;;;13.8;22.8;;;;;;;1.4;89.2;97690;;;;
2022/11/22 19:59:33;;;;;;;13.8;22.8;;;;;;;1.3;89;97690;;;;
2022/11/22 20:09:32;;;;;;;13.8;22.8;;;;;;;1.1;89.1;97700;;;;
2022/11/22 20:20:32;;;;;;;21.8;12.4;;;;;;;0.9;89.8;97690;;;;
2022/11/22 20:30:32;;;;;;;21.8;12.4;;;;;;;0.8;89.8;97710;;;;
2022/11/22 20:41:32;;;;;;;21.8;12.4;;;;;;;0.7;90.4;97700;;;;
2022/11/22 20:52:32;;;;;;;20.1;13.1;;;;;;;0.8;90.7;97700;;;;
2022/11/22 21:02:33;;;;;;;20.1;13.1;;;;;;;0.7;90.9;97700;;;;
2022/11/22 21:12:32;;;;;;;25.5;15;;;;;;;0.7;91.1;97710;;;;
2022/11/22 21:22:32;;;;;;;25.5;15;;;;;;;0.8;91.2;97720;;;;
2022/11/22 21:33:32;;;;;;;25.5;15;;;;;;;0.9;91.1;97730;;;;
2022/11/22 21:44:32;;;;;;;23.8;14.7;;;;;;;0.8;91.1;97720;;;;
2022/11/22 21:55:32;;;;;;;23.8;14.7;;;;;;;0.8;90.9;97720;;;;
2022/11/22 22:05:32;;;;;;;23.8;14.7;;;;;;;0.7;91.3;97720;;;;
2022/11/22 22:16:32;;;;;;;24;15.7;;;;;;;0.6;91.6;97720;;;;
2022/11/22 22:26:32;;;;;;;24;15.7;;;;;;;0.7;91.6;97720;;;;
2022/11/22 22:36:32;;;;;;;24;15.7;;;;;;;0.8;91.5;97720;;;;
2022/11/22 22:46:32;;;;;;;24.8;15.6;;;;;;;0.8;91.4;97730;;;;
2022/11/22 22:57:32;;;;;;;24.8;15.6;;;;;;;0.6;91.3;97720;;;;
2022/11/22 23:08:32;;;;;;;24.8;15.6;;;;;;;0.7;91.1;97730;;;;
2022/11/22 23:19:32;;;;;;;29.4;15.2;;;;;;;0.8;90.9;97730;;;;
2022/11/22 23:29:32;;;;;;;29.4;15.2;;;;;;;0.8;90.7;97720;;;;
2022/11/22 23:39:32;;;;;;;29.4;15.2;;;;;;;0.7;90.5;97720;;;;
2022/11/22 23:50:32;;;;;;;24.3;14.3;;;;;;;0.5;90.8;97710;;;;
